Time;durP1;ratioP1;P1;durP2;ratioP2;P2;SDS_P1;SDS_P2;PMS_P1;PMS_P2;Temp;Humidity;BMP_temperature;BMP_pressure;BME280_temperature;BME280_humidity;BME280_pressure;Samples;Min_cycle;Max_cycle;Signal;HPM_P1;HPM_P2
2022/11/16 00:00:15;;;;;;;;;;;;;;;;;;5044850;28;19913;-60
2022/11/16 00:02:41;;;;;;;;;;;;;;;;;;5033021;28;19913;-60
2022/11/16 00:05:06;;;;;;;;;;;;;;;;;;5040813;28;19913;-60
2022/11/16 00:07:32;;;;;;;;;;;;;;;;;;5037230;28;20160;-60
2022/11/16 00:09:58;;;;;;;;;;;;;;;;;;5040433;28;19909;-60
2022/11/16 00:12:24;;;;;;;;;;;;;;;;;;5055746;28;19942;-60
2022/11/16 00:14:50;;;;;;;;;;;;;;;;;;5040560;28;19921;-60
2022/11/16 00:17:16;;;;;;;;;;;;;;;;;;5036880;28;20377;-60
2022/11/16 00:19:42;;;;;;;;;;;;;;;;;;5035381;28;19913;-58
2022/11/16 00:22:08;;;;;;;;;;;;;;;;;;5036852;28;19959;-60
2022/11/16 00:24:34;;;;;;;;;;;;;;;;;;5029575;28;19986;-60
2022/11/16 00:27:00;;;;;;;;;;;;;;;;;;5041932;28;20374;-60
2022/11/16 00:29:26;;;;;;;;;;;;;;;;;;5051926;28;20003;-60
2022/11/16 00:31:52;;;;;;;;;;;;;;;;;;5035402;28;20004;-60
2022/11/16 00:34:18;;;;;;;;;;;;;;;;;;5043679;28;19916;-59
2022/11/16 00:36:44;;;;;;;;;;;;;;;;;;5052453;28;19920;-59
2022/11/16 00:39:10;;;;;;;;;;;;;;;;;;5055102;28;19924;-60
2022/11/16 00:41:36;;;;;;;;;;;;;;;;;;5038424;28;19966;-60
2022/11/16 00:44:02;;;;;;;;;;;;;;;;;;5040972;28;19913;-60
2022/11/16 00:46:28;;;;;;;;;;;;;;;;;;5046162;28;20008;-60
2022/11/16 00:48:54;;;;;;;;;;;;;;;;;;5034789;28;19917;-60
2022/11/16 00:51:20;;;;;;;;;;;;;;;;;;5047085;28;20507;-60
2022/11/16 00:53:45;;;;;;;;;;;;;;;;;;5051193;28;20050;-60
2022/11/16 00:56:11;;;;;;;;;;;;;;;;;;5041286;28;19919;-60
2022/11/16 00:58:37;;;;;;;;;;;;;;;;;;5036520;28;20019;-60
2022/11/16 01:01:04;;;;;;;;;;;;;;;;;;5052916;28;20431;-60
2022/11/16 01:03:29;;;;;;;;;;;;;;;;;;5036633;28;19913;-60
2022/11/16 01:05:55;;;;;;;;;;;;;;;;;;5035134;28;19928;-60
2022/11/16 01:08:21;;;;;;;;;;;;;;;;;;5035416;28;19913;-60
2022/11/16 01:10:47;;;;;;;;;;;;;;;;;;5041659;28;19979;-60
2022/11/16 01:13:13;;;;;;;;;;;;;;;;;;5054481;28;19925;-59
2022/11/16 01:15:39;;;;;;;;;;;;;;;;;;5052691;28;20380;-60
2022/11/16 01:18:05;;;;;;;;;;;;;;;;;;5033680;28;19914;-60
2022/11/16 01:20:31;;;;;;;;;;;;;;;;;;5038595;28;19958;-60
2022/11/16 01:22:57;;;;;;;;;;;;;;;;;;5034973;28;19919;-60
2022/11/16 01:25:22;;;;;;;;;;;;;;;;;;5036244;28;19917;-60
2022/11/16 01:27:48;;;;;;;;;;;;;;;;;;5052860;28;20419;-59
2022/11/16 01:30:14;;;;;;;;;;;;;;;;;;5052103;28;19909;-60
2022/11/16 01:32:40;;;;;;;;;;;;;;;;;;5034316;28;20385;-60
2022/11/16 01:35:06;;;;;;;;;;;;;;;;;;5034244;28;20014;-60
2022/11/16 01:37:32;;;;;;;;;;;;;;;;;;5045042;28;20288;-60
2022/11/16 01:39:58;;;;;;;;;;;;;;;;;;5051847;28;20206;-59
2022/11/16 01:42:24;;;;;;;;;;;;;;;;;;5051799;28;19917;-60
2022/11/16 01:44:50;;;;;;;;;;;;;;;;;;5053782;28;20395;-59
2022/11/16 01:47:16;;;;;;;;;;;;;;;;;;5053758;28;20384;-60
2022/11/16 01:49:42;;;;;;;;;;;;;;;;;;5053052;28;19924;-58
2022/11/16 01:52:08;;;;;;;;;;;;;;;;;;5040990;28;19956;-60
2022/11/16 01:54:33;;;;;;;;;;;;;;;;;;5033930;28;20008;-60
2022/11/16 01:56:59;;;;;;;;;;;;;;;;;;5033906;28;20012;-58
2022/11/16 01:59:25;;;;;;;;;;;;;;;;;;5034761;28;20381;-60
2022/11/16 02:01:51;;;;;;;;;;;;;;;;;;5039071;28;19913;-60
2022/11/16 02:04:17;;;;;;;;;;;;;;;;;;5036023;28;19917;-60
2022/11/16 02:06:43;;;;;;;;;;;;;;;;;;5053415;28;20335;-60
2022/11/16 02:11:53;;;;;;;;;;;;;;;;;;5040403;28;19971;-60
2022/11/16 02:14:19;;;;;;;;;;;;;;;;;;5033615;28;20304;-60
2022/11/16 02:16:47;;;;;;;;;;;;;;;;;;5038226;28;19913;-59
2022/11/16 02:19:13;;;;;;;;;;;;;;;;;;5052952;28;19913;-59
2022/11/16 02:21:38;;;;;;;;;;;;;;;;;;5045179;28;20385;-60
2022/11/16 02:24:04;;;;;;;;;;;;;;;;;;5043610;28;19919;-59
2022/11/16 02:26:30;;;;;;;;;;;;;;;;;;5035835;28;19909;-58
2022/11/16 02:28:56;;;;;;;;;;;;;;;;;;5033171;28;19980;-59
2022/11/16 02:31:22;;;;;;;;;;;;;;;;;;5042038;28;19920;-59
2022/11/16 02:33:48;;;;;;;;;;;;;;;;;;5051098;28;19970;-60
2022/11/16 02:36:14;;;;;;;;;;;;;;;;;;5052840;28;19917;-58
2022/11/16 02:38:40;;;;;;;;;;;;;;;;;;5036918;28;20370;-59
2022/11/16 02:41:06;;;;;;;;;;;;;;;;;;5039562;28;19912;-59
2022/11/16 02:43:32;;;;;;;;;;;;;;;;;;5034674;28;19913;-58
2022/11/16 02:45:58;;;;;;;;;;;;;;;;;;5046855;28;20289;-59
2022/11/16 02:48:23;;;;;;;;;;;;;;;;;;5032632;28;20285;-59
2022/11/16 02:50:51;;;;;;;;;;;;;;;;;;5036673;28;19960;-59
2022/11/16 02:53:17;;;;;;;;;;;;;;;;;;5050979;28;19971;-59
2022/11/16 02:55:43;;;;;;;;;;;;;;;;;;5049247;28;19956;-59
2022/11/16 02:58:09;;;;;;;;;;;;;;;;;;5032507;28;19949;-59
2022/11/16 03:00:35;;;;;;;;;;;;;;;;;;5033290;28;20440;-59
2022/11/16 03:03:01;;;;;;;;;;;;;;;;;;5034932;28;20011;-59
2022/11/16 03:05:33;;;;;;;;;;;;;;;;;;5052706;28;20007;-59
2022/11/16 03:07:59;;;;;;;;;;;;;;;;;;5052147;28;20274;-58
2022/11/16 03:13:09;;;;;;;;;;;;;;;;;;5052178;28;19920;-59
2022/11/16 03:15:35;;;;;;;;;;;;;;;;;;5048610;28;19917;-59
2022/11/16 03:18:01;;;;;;;;;;;;;;;;;;5045243;28;19920;-59
2022/11/16 03:20:27;;;;;;;;;;;;;;;;;;5052034;28;20373;-59
2022/11/16 03:22:53;;;;;;;;;;;;;;;;;;5033511;28;19917;-59
2022/11/16 03:25:19;;;;;;;;;;;;;;;;;;5038782;28;19920;-59
2022/11/16 03:27:45;;;;;;;;;;;;;;;;;;5038610;28;19913;-59
2022/11/16 03:30:10;;;;;;;;;;;;;;;;;;5051682;28;19916;-59
2022/11/16 03:32:36;;;;;;;;;;;;;;;;;;5033127;28;19916;-59
2022/11/16 03:35:02;;;;;;;;;;;;;;;;;;5052104;28;19979;-59
2022/11/16 03:37:28;;;;;;;;;;;;;;;;;;5049548;28;19967;-59
2022/11/16 03:39:54;;;;;;;;;;;;;;;;;;5050525;28;19912;-59
2022/11/16 03:42:20;;;;;;;;;;;;;;;;;;5036137;28;19920;-59
2022/11/16 03:44:46;;;;;;;;;;;;;;;;;;5014342;28;19913;-59
2022/11/16 03:47:12;;;;;;;;;;;;;;;;;;5041473;28;19939;-59
2022/11/16 03:49:38;;;;;;;;;;;;;;;;;;5031800;28;19917;-59
2022/11/16 03:52:04;;;;;;;;;;;;;;;;;;5039524;28;19920;-59
2022/11/16 03:54:30;;;;;;;;;;;;;;;;;;5040525;28;19924;-59
2022/11/16 03:56:56;;;;;;;;;;;;;;;;;;5050275;28;19948;-59
2022/11/16 03:59:22;;;;;;;;;;;;;;;;;;5051716;28;20003;-59
2022/11/16 04:01:47;;;;;;;;;;;;;;;;;;5049793;28;19920;-59
2022/11/16 04:24:10;;;;;;;;;;;;;;;;;;5029696;28;19916;-59
2022/11/16 04:26:12;;;;;;;;;;;;;;;;;;5031805;28;19920;-59
2022/11/16 04:28:38;;;;;;;;;;;;;;;;;;5031548;28;19913;-58
2022/11/16 04:39:18;;;;;;;;;;;;;;;;;;5037254;28;19920;-59
2022/11/16 04:47:05;;;;;;;;;;;;;;;;;;5031435;28;19920;-58
2022/11/16 04:47:14;;;;;;;;;;;;;;;;;;5031406;28;20000;-58
2022/11/16 04:49:40;;;;;;;;;;;;;;;;;;5038486;28;20002;-59
2022/11/16 04:52:07;;;;;;;;;;;;;;;;;;5049646;28;20331;-58
2022/11/16 04:54:33;;;;;;;;;;;;;;;;;;5026177;28;19921;-58
2022/11/16 04:56:59;;;;;;;;;;;;;;;;;;5035074;28;19915;-59
2022/11/16 04:59:25;;;;;;;;;;;;;;;;;;5016384;28;19909;-58
2022/11/16 05:02:09;;;;;;;;;;;;;;;;;;5033390;28;19916;-58
2022/11/16 05:04:35;;;;;;;;;;;;;;;;;;5034539;28;19913;-56
2022/11/16 05:07:01;;;;;;;;;;;;;;;;;;5034310;28;20358;-58
2022/11/16 05:09:27;;;;;;;;;;;;;;;;;;5034034;28;19956;-58
2022/11/16 05:11:53;;;;;;;;;;;;;;;;;;5034380;28;19964;-58
2022/11/16 05:14:18;;;;;;;;;;;;;;;;;;5034727;28;20016;-58
2022/11/16 05:16:44;;;;;;;;;;;;;;;;;;5034729;28;20314;-57
2022/11/16 05:21:55;;;;;;;;;;;;;;;;;;5035022;28;19940;-57
2022/11/16 05:24:32;;;;;;;;;;;;;;;;;;5034475;28;19909;-55
2022/11/16 05:26:58;;;;;;;;;;;;;;;;;;5034493;28;19916;-58
2022/11/16 05:29:24;;;;;;;;;;;;;;;;;;5034585;28;19913;-57
2022/11/16 05:31:50;;;;;;;;;;;;;;;;;;5034523;28;19909;-58
2022/11/16 05:34:16;;;;;;;;;;;;;;;;;;5034505;28;19913;-57
2022/11/16 05:36:42;;;;;;;;;;;;;;;;;;5034509;28;20435;-59
2022/11/16 05:39:08;;;;;;;;;;;;;;;;;;5034210;28;19921;-57
2022/11/16 05:41:34;;;;;;;;;;;;;;;;;;5034320;28;19913;-57
2022/11/16 05:43:59;;;;;;;;;;;;;;;;;;5016652;28;20027;-57
2022/11/16 05:46:25;;;;;;;;;;;;;;;;;;5034320;28;19979;-58
2022/11/16 05:48:51;;;;;;;;;;;;;;;;;;5034330;28;19917;-56
2022/11/16 05:51:17;;;;;;;;;;;;;;;;;;5034225;28;19916;-57
2022/11/16 05:53:43;;;;;;;;;;;;;;;;;;5034072;28;19921;-57
2022/11/16 05:56:09;;;;;;;;;;;;;;;;;;5034060;28;19909;-58
2022/11/16 05:58:35;;;;;;;;;;;;;;;;;;5034016;28;19913;-57
2022/11/16 06:01:01;;;;;;;;;;;;;;;;;;5034008;28;19909;-56
2022/11/16 06:03:27;;;;;;;;;;;;;;;;;;5015958;28;19916;-56
2022/11/16 06:05:53;;;;;;;;;;;;;;;;;;5033933;28;19918;-58
2022/11/16 06:08:19;;;;;;;;;;;;;;;;;;5033715;28;19932;-58
2022/11/16 06:10:44;;;;;;;;;;;;;;;;;;5033805;28;19916;-54
2022/11/16 06:13:10;;;;;;;;;;;;;;;;;;5033680;28;19917;-57
2022/11/16 06:15:37;;;;;;;;;;;;;;;;;;5033705;28;19909;-58
2022/11/16 06:18:03;;;;;;;;;;;;;;;;;;5033653;28;19916;-59
2022/11/16 06:20:28;;;;;;;;;;;;;;;;;;5033548;28;19910;-59
2022/11/16 06:22:54;;;;;;;;;;;;;;;;;;5033603;28;19909;-55
2022/11/16 06:25:20;;;;;;;;;;;;;;;;;;5033468;28;19971;-57
2022/11/16 06:27:46;;;;;;;;;;;;;;;;;;5033453;28;19964;-57
2022/11/16 06:30:12;;;;;;;;;;;;;;;;;;5015532;28;19995;-52
2022/11/16 06:32:39;;;;;;;;;;;;;;;;;;5033392;28;20355;-51
2022/11/16 06:35:04;;;;;;;;;;;;;;;;;;5033236;28;20020;-50
2022/11/16 06:37:30;;;;;;;;;;;;;;;;;;5033520;28;19949;-55
2022/11/16 06:39:56;;;;;;;;;;;;;;;;;;5015449;28;19909;-54
2022/11/16 06:42:22;;;;;;;;;;;;;;;;;;5043672;28;19921;-52
2022/11/16 06:44:48;;;;;;;;;;;;;;;;;;5036886;28;19968;-54
2022/11/16 06:47:14;;;;;;;;;;;;;;;;;;5033126;28;20369;-52
2022/11/16 06:49:40;;;;;;;;;;;;;;;;;;5032722;28;19917;-49
2022/11/16 06:52:06;;;;;;;;;;;;;;;;;;5033080;28;19910;-59
2022/11/16 06:54:32;;;;;;;;;;;;;;;;;;5033092;28;19913;-61
2022/11/16 06:56:58;;;;;;;;;;;;;;;;;;5032917;28;19909;-59
2022/11/16 06:59:23;;;;;;;;;;;;;;;;;;5032710;28;20309;-59
2022/11/16 07:01:50;;;;;;;;;;;;;;;;;;5032829;28;19909;-59
2022/11/16 07:04:15;;;;;;;;;;;;;;;;;;5032834;28;19915;-60
2022/11/16 07:06:41;;;;;;;;;;;;;;;;;;5032814;28;20000;-59
2022/11/16 07:09:07;;;;;;;;;;;;;;;;;;5014760;28;19909;-59
2022/11/16 07:11:33;;;;;;;;;;;;;;;;;;5032689;28;19967;-59
2022/11/16 07:13:59;;;;;;;;;;;;;;;;;;5032507;28;20336;-59
2022/11/16 07:16:25;;;;;;;;;;;;;;;;;;5031985;28;19916;-59
2022/11/16 07:18:51;;;;;;;;;;;;;;;;;;5032338;28;19940;-60
2022/11/16 07:21:17;;;;;;;;;;;;;;;;;;5032511;28;20329;-50
2022/11/16 07:23:43;;;;;;;;;;;;;;;;;;5032854;28;19924;-50
2022/11/16 07:26:09;;;;;;;;;;;;;;;;;;5032496;28;19944;-51
2022/11/16 07:28:35;;;;;;;;;;;;;;;;;;5032261;28;19913;-53
2022/11/16 07:31:01;;;;;;;;;;;;;;;;;;5032443;28;20281;-54
2022/11/16 07:33:27;;;;;;;;;;;;;;;;;;5032318;28;19932;-54
2022/11/16 07:35:55;;;;;;;;;;;;;;;;;;5031848;28;20221;-50
2022/11/16 07:38:21;;;;;;;;;;;;;;;;;;5032158;28;19916;-49
2022/11/16 07:40:46;;;;;;;;;;;;;;;;;;5032542;28;19909;-49
2022/11/16 07:43:12;;;;;;;;;;;;;;;;;;5050089;28;20373;-59
2022/11/16 07:45:38;;;;;;;;;;;;;;;;;;5064181;28;20285;-58
2022/11/16 07:48:04;;;;;;;;;;;;;;;;;;5045747;28;19924;-59
2022/11/16 07:50:30;;;;;;;;;;;;;;;;;;5052303;28;19916;-59
2022/11/16 07:52:56;;;;;;;;;;;;;;;;;;5052162;28;19912;-58
2022/11/16 07:55:24;;;;;;;;;;;;;;;;;;5052050;28;19936;-58
2022/11/16 07:57:50;;;;;;;;;;;;;;;;;;5051894;28;19917;-58
2022/11/16 08:00:16;;;;;;;;;;;;;;;;;;5051931;28;20001;-59
2022/11/16 08:02:42;;;;;;;;;;;;;;;;;;5052105;28;19999;-59
2022/11/16 08:05:08;;;;;;;;;;;;;;;;;;5052049;28;19909;-58
2022/11/16 08:07:34;;;;;;;;;;;;;;;;;;5051920;28;20388;-59
2022/11/16 08:10:00;;;;;;;;;;;;;;;;;;5051478;28;19996;-60
2022/11/16 08:12:26;;;;;;;;;;;;;;;;;;5037064;28;20008;-60
2022/11/16 08:14:52;;;;;;;;;;;;;;;;;;5031896;28;20280;-58
2022/11/16 08:17:18;;;;;;;;;;;;;;;;;;5032122;28;19915;-60
2022/11/16 08:19:43;;;;;;;;;;;;;;;;;;5014103;28;19915;-59
2022/11/16 08:22:09;;;;;;;;;;;;;;;;;;5031996;28;19952;-59
2022/11/16 08:24:35;;;;;;;;;;;;;;;;;;5031990;28;20260;-59
2022/11/16 08:27:01;;;;;;;;;;;;;;;;;;5033124;28;19967;-58
2022/11/16 08:29:28;;;;;;;;;;;;;;;;;;5035505;28;19909;-60
2022/11/16 08:31:54;;;;;;;;;;;;;;;;;;5035617;28;19988;-58
2022/11/16 08:34:20;;;;;;;;;;;;;;;;;;5038026;28;20575;-60
2022/11/16 08:36:46;;;;;;;;;;;;;;;;;;5035485;28;19919;-60
2022/11/16 08:39:12;;;;;;;;;;;;;;;;;;5035296;28;19909;-58
2022/11/16 08:41:38;;;;;;;;;;;;;;;;;;5035460;28;19917;-60
2022/11/16 08:44:04;;;;;;;;;;;;;;;;;;5044139;28;19914;-58
2022/11/16 08:46:30;;;;;;;;;;;;;;;;;;5044771;28;20400;-58
2022/11/16 08:48:56;;;;;;;;;;;;;;;;;;5045041;28;20399;-58
2022/11/16 08:51:22;;;;;;;;;;;;;;;;;;5053498;28;19955;-56
2022/11/16 08:53:48;;;;;;;;;;;;;;;;;;5055135;28;19959;-57
2022/11/16 08:56:14;;;;;;;;;;;;;;;;;;5055127;28;19920;-58
2022/11/16 08:58:45;;;;;;;;;;;;;;;;;;5054994;28;19995;-59
2022/11/16 09:01:12;;;;;;;;;;;;;;;;;;5055183;28;19917;-56
2022/11/16 09:03:38;;;;;;;;;;;;;;;;;;5045094;28;20332;-58
2022/11/16 09:06:04;;;;;;;;;;;;;;;;;;5045142;28;19913;-59
2022/11/16 09:08:30;;;;;;;;;;;;;;;;;;5054696;28;19970;-58
2022/11/16 09:10:56;;;;;;;;;;;;;;;;;;5054960;28;19966;-57
2022/11/16 09:13:22;;;;;;;;;;;;;;;;;;5054808;28;19909;-58
2022/11/16 09:15:48;;;;;;;;;;;;;;;;;;5048742;28;20519;-64
2022/11/16 09:18:13;;;;;;;;;;;;;;;;;;5054566;28;20130;-60
2022/11/16 09:20:39;;;;;;;;;;;;;;;;;;5054803;28;19904;-59
2022/11/16 09:23:05;;;;;;;;;;;;;;;;;;5054728;28;20000;-58
2022/11/16 09:25:31;;;;;;;;;;;;;;;;;;5054625;28;20345;-54
2022/11/16 09:27:57;;;;;;;;;;;;;;;;;;5044950;28;19992;-58
2022/11/16 09:30:23;;;;;;;;;;;;;;;;;;5034656;28;19947;-58
2022/11/16 09:32:49;;;;;;;;;;;;;;;;;;5037119;28;19960;-58
2022/11/16 09:35:16;;;;;;;;;;;;;;;;;;5054334;28;19999;-53
2022/11/16 09:37:42;;;;;;;;;;;;;;;;;;5050607;28;19977;-52
2022/11/16 09:40:10;;;;;;;;;;;;;;;;;;5053132;28;19908;-56
2022/11/16 09:42:36;;;;;;;;;;;;;;;;;;5053274;28;19915;-57
2022/11/16 09:45:03;;;;;;;;;;;;;;;;;;5053548;28;19952;-55
2022/11/16 09:47:29;;;;;;;;;;;;;;;;;;5053724;28;20195;-58
2022/11/16 09:49:55;;;;;;;;;;;;;;;;;;5053628;28;20007;-57
2022/11/16 09:52:21;;;;;;;;;;;;;;;;;;5053958;28;19999;-56
2022/11/16 09:54:47;;;;;;;;;;;;;;;;;;5053924;28;19920;-58
2022/11/16 09:57:12;;;;;;;;;;;;;;;;;;5053980;28;19909;-56
2022/11/16 09:59:39;;;;;;;;;;;;;;;;;;5053762;28;20273;-57
2022/11/16 10:02:05;;;;;;;;;;;;;;;;;;5053971;28;20392;-59
2022/11/16 10:04:35;;;;;;;;;;;;;;;;;;5053889;28;19909;-59
2022/11/16 10:07:01;;;;;;;;;;;;;;;;;;5053712;28;19913;-57
2022/11/16 10:09:27;;;;;;;;;;;;;;;;;;5053535;28;19932;-58
2022/11/16 10:11:53;;;;;;;;;;;;;;;;;;5053700;28;19916;-58
2022/11/16 10:14:19;;;;;;;;;;;;;;;;;;5053622;28;20432;-58
2022/11/16 10:16:45;;;;;;;;;;;;;;;;;;5053625;28;19915;-59
2022/11/16 10:19:11;;;;;;;;;;;;;;;;;;5053359;28;19909;-60
2022/11/16 10:21:37;;;;;;;;;;;;;;;;;;5053467;28;20023;-59
2022/11/16 10:24:03;;;;;;;;;;;;;;;;;;5053489;28;19924;-59
2022/11/16 10:26:29;;;;;;;;;;;;;;;;;;5053343;28;20373;-57
2022/11/16 10:28:55;;;;;;;;;;;;;;;;;;5053117;28;19909;-59
2022/11/16 10:31:21;;;;;;;;;;;;;;;;;;5053196;28;20348;-59
2022/11/16 10:33:47;;;;;;;;;;;;;;;;;;5053195;28;20013;-56
2022/11/16 10:36:13;;;;;;;;;;;;;;;;;;5035292;28;19909;-58
2022/11/16 10:38:39;;;;;;;;;;;;;;;;;;5053436;28;19995;-60
2022/11/16 10:41:05;;;;;;;;;;;;;;;;;;5053045;28;20010;-57
2022/11/16 10:43:31;;;;;;;;;;;;;;;;;;5053064;28;20281;-57
2022/11/16 10:45:58;;;;;;;;;;;;;;;;;;5053117;28;19909;-60
2022/11/16 10:48:24;;;;;;;;;;;;;;;;;;5052458;28;20325;-60
2022/11/16 10:50:50;;;;;;;;;;;;;;;;;;5051923;28;19994;-58
2022/11/16 10:53:16;;;;;;;;;;;;;;;;;;5052972;28;20318;-60
2022/11/16 10:55:42;;;;;;;;;;;;;;;;;;5052793;28;19919;-59
2022/11/16 10:58:08;;;;;;;;;;;;;;;;;;5052681;28;20340;-61
2022/11/16 11:00:34;;;;;;;;;;;;;;;;;;5052788;28;19919;-61
2022/11/16 11:03:00;;;;;;;;;;;;;;;;;;5052756;28;19916;-61
2022/11/16 11:05:26;;;;;;;;;;;;;;;;;;5052595;28;19908;-60
2022/11/16 11:07:51;;;;;;;;;;;;;;;;;;5034709;28;19909;-60
2022/11/16 11:10:17;;;;;;;;;;;;;;;;;;5052438;28;19909;-59
2022/11/16 11:12:43;;;;;;;;;;;;;;;;;;5052565;28;19916;-59
2022/11/16 11:15:09;;;;;;;;;;;;;;;;;;5052335;28;19913;-59
2022/11/16 11:17:35;;;;;;;;;;;;;;;;;;5052492;28;19912;-57
2022/11/16 11:20:03;;;;;;;;;;;;;;;;;;5052247;28;19908;-60
2022/11/16 11:22:29;;;;;;;;;;;;;;;;;;5034634;28;19916;-60
2022/11/16 11:24:55;;;;;;;;;;;;;;;;;;5041167;28;19940;-58
2022/11/16 11:27:22;;;;;;;;;;;;;;;;;;5039751;28;20377;-59
2022/11/16 11:29:48;;;;;;;;;;;;;;;;;;5037490;28;19979;-57
2022/11/16 11:32:14;;;;;;;;;;;;;;;;;;5043140;28;20397;-59
2022/11/16 11:34:40;;;;;;;;;;;;;;;;;;5041814;28;20004;-61
2022/11/16 11:37:06;;;;;;;;;;;;;;;;;;5045918;28;20006;-58
2022/11/16 11:39:32;;;;;;;;;;;;;;;;;;5051978;28;19959;-59
2022/11/16 11:41:58;;;;;;;;;;;;;;;;;;5037873;28;19909;-61
2022/11/16 11:44:24;;;;;;;;;;;;;;;;;;5014274;28;19913;-59
2022/11/16 11:46:50;;;;;;;;;;;;;;;;;;5037333;28;19909;-60
2022/11/16 11:49:16;;;;;;;;;;;;;;;;;;5055920;22;20352;-53
2022/11/16 11:51:42;;;;;;;;;;;;;;;;;;5029063;28;19910;-54
2022/11/16 11:54:08;;;;;;;;;;;;;;;;;;5018070;28;19972;-53
2022/11/16 11:56:34;;;;;;;;;;;;;;;;;;5014930;28;19913;-53
2022/11/16 11:59:00;;;;;;;;;;;;;;;;;;5027638;28;20297;-53
2022/11/16 12:01:26;;;;;;;;;;;;;;;;;;5027808;28;19920;-53
2022/11/16 12:03:52;;;;;;;;;;;;;;;;;;5026380;28;19909;-53
2022/11/16 12:06:18;;;;;;;;;;;;;;;;;;5022724;28;19979;-55
2022/11/16 12:08:44;;;;;;;;;;;;;;;;;;4980158;28;19917;-55
2022/11/16 12:11:10;;;;;;;;;;;;;;;;;;4996543;28;20049;-55
2022/11/16 12:13:36;;;;;;;;;;;;;;;;;;5019934;28;20294;-55
2022/11/16 12:16:02;;;;;;;;;;;;;;;;;;5014775;28;19936;-53
2022/11/16 12:18:28;;;;;;;;;;;;;;;;;;5016214;28;19967;-54
2022/11/16 12:20:54;;;;;;;;;;;;;;;;;;5018896;28;19921;-53
2022/11/16 12:23:19;;;;;;;;;;;;;;;;;;4998769;28;19910;-53
2022/11/16 12:25:45;;;;;;;;;;;;;;;;;;5025328;28;19992;-54
2022/11/16 12:28:11;;;;;;;;;;;;;;;;;;5009560;28;19918;-54
2022/11/16 12:30:37;;;;;;;;;;;;;;;;;;5011783;28;20386;-53
2022/11/16 12:33:03;;;;;;;;;;;;;;;;;;5016112;28;19909;-53
2022/11/16 12:35:29;;;;;;;;;;;14.90;80.20;;;;;;5015367;28;19924;-53
2022/11/16 12:37:55;;;;;;;;;;;;;;;;;;4998666;28;19980;-53
2022/11/16 12:40:21;;;;;;;;;;;;;;;;;;5010471;28;19917;-55
2022/11/16 12:42:57;;;;;;;;;;;12.90;94.20;;;;;;5015903;28;19940;-54
2022/11/16 12:45:23;;;;;;;;;;;;;;;;;;5015762;28;19992;-54
2022/11/16 12:47:49;;;;;;;;;;;;;;;;;;5020125;28;19913;-56
2022/11/16 12:50:15;;;;;;;;;;;;;;;;;;5002991;28;19918;-57
2022/11/16 12:52:41;;;;;;;;;;;;;;;;;;5013262;28;19940;-57
2022/11/16 12:55:07;;;;;;;;;;;;;;;;;;5015367;28;20000;-55
2022/11/16 12:57:33;;;;;;;;;;;;;;;;;;5015069;28;19920;-54
2022/11/16 12:59:59;;;;;;;;;;;;;;;;;;5015203;28;19909;-56
2022/11/16 13:02:25;;;;;;;;;;;;;;;;;;5015380;28;19917;-55
2022/11/16 13:04:50;;;;;;;;;;;;;;;;;;5015326;28;20623;-53
2022/11/16 13:07:17;;;;;;;;;;;;;;;;;;5005503;28;19921;-53
2022/11/16 13:09:42;;;;;;;;;;;;;;;;;;4995442;28;19910;-53
2022/11/16 13:12:12;;;;;;;;;;;;;;;;;;5007883;28;19984;-53
2022/11/16 13:14:38;;;;;;;;;;;;;;;;;;5013956;28;19914;-53
2022/11/16 13:17:04;;;;;;;;;;;;;;;;;;5008269;28;19920;-53
2022/11/16 13:19:30;;;;;;;;;;;;;;;;;;4995270;28;19917;-53
2022/11/16 13:21:58;;;;;;;;;;;;;;;;;;4998717;28;20306;-56
2022/11/16 13:24:24;;;;;;;;;;;;;;;;;;4995436;28;19910;-53
2022/11/16 13:26:50;;;;;;;;;;;;;;;;;;5007666;28;19914;-53
2022/11/16 13:29:16;;;;;;;;;;;;;;;;;;5014267;28;19917;-53
2022/11/16 13:31:42;;;;;;;;;;;;;;;;;;5001550;28;20318;-52
2022/11/16 13:34:08;;;;;;;;;;;;;;;;;;4999294;28;19918;-56
2022/11/16 13:36:35;;;;;;;;;;;;;;;;;;4995146;28;20294;-54
2022/11/16 13:39:01;;;;;;;;;;;;;;;;;;4994968;28;19910;-53
2022/11/16 13:41:28;;;;;;;;;;;;;;;;;;5005999;28;19914;-53
2022/11/16 13:43:54;;;;;;;;;;;;;;;;;;5001133;28;19914;-56
2022/11/16 13:46:20;;;;;;;;;;;;;;;;;;4994952;28;19957;-55
2022/11/16 13:48:46;;;;;;;;;;;;;;;;;;4995878;28;19967;-55
2022/11/16 13:51:11;;;;;;;;;;;;;;;;;;5002185;28;19924;-53
2022/11/16 13:53:37;;;;;;;;;;;;;;;;;;5019665;28;19920;-53
2022/11/16 13:56:03;;;;;;;;;;;;;;;;;;5020913;28;19952;-53
2022/11/16 13:58:29;;;;;;;;;;;;;;;;;;5014141;28;20298;-53
2022/11/16 14:00:55;;;;;;;;;;;;;;;;;;5013894;28;19917;-54
2022/11/16 14:03:21;;;;;;;;;;;;;;;;;;5014215;28;19983;-53
2022/11/16 14:05:47;;;;;;;;;;;;;;;;;;4996666;28;19914;-53
2022/11/16 14:08:13;;;;;;;;;;;;;;;;;;4994407;28;20263;-53
2022/11/16 14:10:39;;;;;;;;;;;;;;;;;;5011754;28;20370;-53
2022/11/16 14:13:05;;;;;;;;;;;;;;;;;;4994520;28;19910;-53
2022/11/16 14:15:31;;;;;;;;;;;;;;;;;;5008771;28;19921;-53
2022/11/16 14:17:57;;;;;;;;;;;;;;;;;;5014189;28;20354;-55
2022/11/16 14:20:23;;;;;;;;;;;;;;;;;;5000563;28;20290;-56
2022/11/16 14:22:49;;;;;;;;;;;;;;;;;;5018398;28;20297;-53
2022/11/16 14:25:15;;;;;;;;;;;;;;;;;;5006114;28;19913;-53
2022/11/16 14:27:40;;;;;;;;;;;;;;;;;;5030346;28;19909;-53
2022/11/16 14:30:06;;;;;;;;;;;;;;;;;;5022465;28;20390;-53
2022/11/16 14:32:32;;;;;;;;;;;;;;;;;;5013246;28;20370;-54
2022/11/16 14:34:58;;;;;;;;;;;;;;;;;;4984185;28;19918;-51
2022/11/16 14:37:27;;;;;;;;;;;;;;;;;;4994005;28;19913;-52
2022/11/16 14:39:53;;;;;;;;;;;;;;;;;;5001640;28;19920;-52
2022/11/16 14:42:19;;;;;;;;;;;;;;;;;;5012668;28;19952;-53
2022/11/16 14:44:44;;;;;;;;;;;;;;;;;;4995893;28;19949;-51
2022/11/16 14:47:10;;;;;;;;;;;;;;;;;;4994921;28;19914;-52
2022/11/16 14:49:36;;;;;;;;;;;;;;;;;;4980283;28;19917;-51
2022/11/16 14:52:02;;;;;;;;;;;;;;;;;;5011775;28;19921;-51
2022/11/16 14:54:28;;;;;;;;;;;;;;;;;;5011095;28;19917;-53
2022/11/16 14:56:55;;;;;;;;;;;;;;;;;;5012292;28;19921;-51
2022/11/16 14:59:21;;;;;;;;;;;;;;;;;;5013834;28;19924;-53
2022/11/16 15:01:47;;;;;;;;;;;;;;;;;;5008074;28;19917;-54
2022/11/16 15:04:13;;;;;;;;;;;;;;;;;;4993601;28;19909;-52
2022/11/16 15:06:39;;;;;;;;;;;;;;;;;;4996983;28;19921;-53
2022/11/16 15:09:05;;;;;;;;;;;;;;;;;;5012409;28;19963;-53
2022/11/16 15:14:16;;;;;;;;;;;;;;;;;;5012546;28;19936;-52
2022/11/16 15:16:42;;;;;;;;;;;;;;;;;;5001650;28;20433;-55
2022/11/16 15:19:08;;;;;;;;;;;;;;;;;;4991964;28;20004;-53
2022/11/16 15:21:33;;;;;;;;;;;;;;;;;;4993196;28;20008;-55
2022/11/16 15:23:59;;;;;;;;;;;;;;;;;;4993150;28;19988;-53
2022/11/16 15:26:25;;;;;;;;;;;;;;;;;;4993043;28;20474;-53
2022/11/16 15:28:51;;;;;;;;;;;;;;;;;;4992821;28;19947;-54
2022/11/16 15:31:17;;;;;;;;;;;;;;;;;;4975606;28;19916;-52
2022/11/16 15:33:43;;;;;;;;;;;;;;;;;;4992999;28;20099;-53
2022/11/16 15:36:09;;;;;;;;;;;;;;;;;;4992481;28;19916;-55
2022/11/16 15:38:36;;;;;;;;;;;;;;;;;;4992699;28;20302;-52
2022/11/16 15:41:02;;;;;;;;;;;;;;;;;;4992910;28;19910;-52
2022/11/16 15:43:28;;;;;;;;;;;;;;;;;;4992928;28;19910;-52
2022/11/16 15:45:54;;;;;;;;;;;;;;;;;;4992899;28;19933;-55
2022/11/16 15:48:20;;;;;;;;;;;;;;;;;;4992595;28;20040;-55
2022/11/16 15:50:46;;;;;;;;;;;;;;;;;;4992869;28;20008;-52
2022/11/16 15:53:12;;;;;;;;;;;;;;;;;;4992864;28;20327;-53
2022/11/16 15:55:38;;;;;;;;;;;;;;;;;;4992631;28;20048;-52
2022/11/16 15:58:03;;;;;;;;;;;;;;;;;;4992684;28;20370;-53
2022/11/16 16:00:29;;;;;;;;;;;;;;;;;;4992542;28;19914;-53
2022/11/16 16:02:55;;;;;;;;;;;;;;;;;;4992744;28;19910;-52
2022/11/16 16:05:21;;;;;;;;;;;;;;;;;;4992621;28;19921;-53
2022/11/16 16:07:47;;;;;;;;;;;;;;;;;;4993096;28;19929;-54
2022/11/16 16:10:13;;;;;;;;;;;;;;;;;;4992350;28;19932;-52
2022/11/16 16:12:40;;;;;;;;;;;;;;;;;;4992579;28;19964;-53
2022/11/16 16:15:06;;;;;;;;;;;;;;;;;;4992402;28;20362;-52
2022/11/16 16:17:32;;;;;;;;;;;;;;;;;;4992650;28;19913;-54
2022/11/16 16:19:58;;;;;;;;;;;;;;;;;;4992560;28;19910;-52
2022/11/16 16:22:27;;;;;;;;;;;;;;;;;;4992709;28;19972;-52
2022/11/16 16:24:53;;;;;;;;;;;;;;;;;;5014928;28;20412;-55
2022/11/16 16:27:19;;;;;;;;;;;;;;;;;;5012128;28;19945;-53
2022/11/16 16:29:44;;;;;;;;;;;;;;;;;;5011878;28;19906;-53
2022/11/16 16:32:10;;;;;;;;;;;;;;;;;;5011452;28;20370;-52
2022/11/16 16:34:36;;;;;;;;;;;;;;;;;;5011937;28;20526;-53
2022/11/16 16:37:02;;;;;;;;;;;;;;;;;;5011912;28;19963;-56
2022/11/16 16:39:30;;;;;;;;;;;;;;;;;;5011706;28;19920;-53
2022/11/16 16:41:56;;;;;;;;;;;;;;;;;;5011916;28;19910;-53
2022/11/16 16:44:22;;;;;;;;;;;;;;;;;;5011893;28;20397;-56
2022/11/16 16:46:48;;;;;;;;;;;;;;;;;;5011850;28;19916;-53
2022/11/16 16:49:14;;;;;;;;;;;;;;;;;;5014628;28;19921;-54
2022/11/16 16:51:40;;;;;;;;;;;;;;;;;;5015582;28;19916;-52
2022/11/16 16:54:06;;;;;;;;;;;;;;;;;;5015325;28;20374;-52
2022/11/16 16:56:32;;;;;;;;;;;;;;;;;;5015648;28;19920;-53
2022/11/16 16:58:58;;;;;;;;;;;;;;;;;;5015160;28;19905;-52
2022/11/16 17:01:25;;;;;;;;;;;;;;;;;;5015254;28;19910;-56
2022/11/16 17:03:51;;;;;;;;;;;;;;;;;;4997667;28;19905;-53
2022/11/16 17:06:17;;;;;;;;;;;;;;;;;;5015202;28;19916;-54
2022/11/16 17:08:43;;;;;;;;;;;;;;;;;;5014925;28;19925;-53
2022/11/16 17:11:11;;;;;;;;;;;;;;;;;;5015274;28;19917;-52
2022/11/16 17:13:37;;;;;;;;;;;;;;;;;;5015264;28;19906;-52
2022/11/16 17:16:02;;;;;;;;;;;;;;;;;;5015109;28;19913;-52